首页
METAR-TAF:

METAR-TAF

机场 :

姆万扎, 坦桑尼亚

纬度: 02-28S, 经度: 032-55E, 海拔: 1139米

当前天气观测

该预报发布于1小时和19分钟前的12:00 UTC
风速11节,风向
温度 25°C
湿度 69%
气压 1015 hPa
能见度10公里或以上
少量云层高于2300英尺
少量云层高于2400英尺, 积雨云.
多云层高于10000英尺

METAR: HTMW 201200Z 18011KT 9999 FEW023 FEW024CB BKN100 25/19 Q1015 NOSIG

时间: 16:19 (13:19 UTC)

预报

该预报发布于2小时和19分钟前的11:00 UTC
预报有效从20日的 12点(UTC)到 21日的 12点(UTC)
风速10节,风向北转西北
能见度10公里或以上
少量云层高于2200英尺
少量云层高于2300英尺, 积雨云.
多云层高于9000英尺
成为
从 20日的 16点(UTC)到 20日的 19点(UTC)
风速10节,风向南转南东
短暂存在
从 21日的 05点(UTC)到 21日的 08点(UTC)
散云层高于1800英尺
多云层高于8000英尺
雷暴, 雨

TAF: HTMW 201100Z 2012/2112 33010KT 9999 FEW022 FEW023CB BKN090 BECMG 2016/2019 15010KT TEMPO 2105/2108 TSRA SCT018 FE019CB BKN080

超过4000个机场的气象观测和天气预报(METAR&TAF报告)。

可查询的气象台以黄色和红色小点在地图上表示。

将鼠标移到小点上方,可查看气象台名称。

然后点击查看天气观测和预报。

如需切换地图:点击带黑十字的绿色按钮放大地图;点击带横线的绿色按钮缩小地图;或者点击绿色箭头查看邻近地区的地图。


METAR-TAF: